Time;durP1;ratioP1;P1;durP2;ratioP2;P2;SDS_P1;SDS_P2;PMS_P1;PMS_P2;Temp;Humidity;BMP_temperature;BMP_pressure;BME280_temperature;BME280_humidity;BME280_pressure;Samples;Min_cycle;Max_cycle;Signal;HPM_P1;HPM_P2
2023/12/12 00:00:30;;;;;;;5.90;1.50;;;;;;;17.85;53.60;96140.56;10406143;28;20045;-30
2023/12/12 00:05:31;;;;;;;2.30;1.03;;;;;;;17.87;53.86;96154.03;10393727;28;20416;-30
2023/12/12 00:10:31;;;;;;;4.40;1.00;;;;;;;17.88;53.63;96146.44;10407728;28;20354;-30
2023/12/12 00:15:32;;;;;;;3.17;1.20;;;;;;;17.88;54.14;96148.97;10408791;28;20353;-30
2023/12/12 00:20:32;;;;;;;4.80;1.27;;;;;;;17.88;54.28;96151.50;10410551;28;20041;-30
2023/12/12 00:25:32;;;;;;;7.93;1.70;;;;;;;17.87;54.06;96148.97;10407345;28;20033;-32
2023/12/12 00:30:33;;;;;;;2.92;1.00;;;;;;;17.84;54.20;96154.06;10395120;28;20582;-30
2023/12/12 00:35:33;;;;;;;2.20;1.10;;;;;;;17.85;54.35;96153.22;10409889;28;20037;-31
2023/12/12 00:40:34;;;;;;;1.77;1.03;;;;;;;17.85;54.72;96138.88;10406417;28;20040;-30
2023/12/12 00:45:34;;;;;;;4.33;1.00;;;;;;;17.86;54.73;96149.84;10401685;28;20033;-31
2023/12/12 00:50:35;;;;;;;2.03;1.00;;;;;;;17.87;54.68;96156.56;10409197;28;20048;-30
2023/12/12 00:55:36;;;;;;;4.47;1.10;;;;;;;17.87;54.89;96169.22;10406262;28;20414;-30
2023/12/12 01:00:36;;;;;;;2.05;1.13;;;;;;;17.87;55.13;96148.97;10396173;28;20340;-31
2023/12/12 01:05:36;;;;;;;2.40;1.10;;;;;;;17.86;55.02;96132.97;10395967;28;20049;-31
2023/12/12 01:10:37;;;;;;;3.13;0.97;;;;;;;17.79;54.98;96130.47;10407272;28;20068;-30
2023/12/12 01:15:37;;;;;;;3.17;0.80;;;;;;;17.85;55.11;96127.91;10406398;28;20040;-31
2023/12/12 01:20:37;;;;;;;1.43;0.83;;;;;;;17.82;55.04;96128.75;10407407;28;20033;-31
2023/12/12 01:25:38;;;;;;;3.22;1.10;;;;;;;17.85;56.14;96132.97;10407000;28;20454;-30
2023/12/12 01:30:38;;;;;;;4.57;1.90;;;;;;;17.85;56.50;96125.38;10398747;28;20036;-30
2023/12/12 01:35:39;;;;;;;3.57;0.70;;;;;;;17.84;56.36;96121.16;10400063;28;20032;-31
2023/12/12 01:40:39;;;;;;;2.97;0.70;;;;;;;17.85;56.25;96102.56;10406331;28;20037;-30
2023/12/12 01:45:39;;;;;;;7.55;1.25;;;;;;;17.85;56.99;96126.22;10398107;28;20478;-30
2023/12/12 01:50:40;;;;;;;2.70;0.90;;;;;;;17.85;56.15;96117.78;10407058;28;20045;-31
2023/12/12 01:55:41;;;;;;;3.35;0.80;;;;;;;17.83;57.11;96101.75;10405352;28;20127;-30
2023/12/12 02:00:42;;;;;;;3.13;0.70;;;;;;;17.84;56.06;96114.38;10400717;28;20446;-30
2023/12/12 02:05:46;;;;;;;2.75;0.80;;;;;;;17.84;56.50;96106.78;10400240;28;20030;-30
2023/12/12 02:10:46;;;;;;;2.15;0.82;;;;;;;17.86;55.89;96099.19;10395186;28;20275;-30
2023/12/12 02:15:47;;;;;;;1.23;0.90;;;;;;;17.87;55.92;96098.34;10404959;28;20033;-30
2023/12/12 02:20:47;;;;;;;3.35;0.65;;;;;;;17.86;56.97;96094.13;10406257;28;20033;-30
2023/12/12 02:25:48;;;;;;;3.67;0.98;;;;;;;17.87;55.79;96089.06;10404308;28;20063;-30
2023/12/12 02:30:49;;;;;;;1.58;0.70;;;;;;;17.87;56.04;96088.19;10396594;28;20040;-30
2023/12/12 02:35:49;;;;;;;2.88;0.88;;;;;;;17.81;56.43;96073.06;10404878;28;20129;-31
2023/12/12 02:40:50;;;;;;;2.90;1.03;;;;;;;17.84;57.25;96101.72;10409705;28;20047;-30
2023/12/12 02:45:50;;;;;;;2.10;0.80;;;;;;;17.86;55.80;96081.47;10413468;28;20041;-30
2023/12/12 02:50:50;;;;;;;2.40;0.93;;;;;;;17.85;56.12;96103.44;10410547;28;20553;-31
2023/12/12 02:55:51;;;;;;;1.30;0.70;;;;;;;17.87;56.08;96090.75;10403694;28;20402;-31
2023/12/12 03:00:51;;;;;;;3.50;1.20;;;;;;;17.85;57.21;96067.13;10399161;28;20503;-31
2023/12/12 03:05:51;;;;;;;2.30;0.83;;;;;;;17.85;57.33;96064.59;10413360;28;20484;-31
2023/12/12 03:10:52;;;;;;;4.17;0.80;;;;;;;17.84;56.78;96046.03;10406598;28;20538;-31
2023/12/12 03:15:52;;;;;;;1.33;0.70;;;;;;;17.84;56.33;96045.19;10404594;28;20308;-32
2023/12/12 03:20:52;;;;;;;2.07;0.90;;;;;;;17.78;55.87;96032.56;10413135;28;20506;-31
2023/12/12 03:25:53;;;;;;;3.50;0.90;;;;;;;17.86;56.31;96035.88;10396543;28;20399;-32
2023/12/12 03:30:53;;;;;;;2.63;0.63;;;;;;;17.84;57.17;96038.41;10394540;28;20327;-31
2023/12/12 03:35:54;;;;;;;3.53;0.80;;;;;;;17.80;57.42;96023.28;10411930;28;20029;-31
2023/12/12 03:40:54;;;;;;;1.75;0.85;;;;;;;17.85;56.22;96021.56;10400584;28;20804;-33
2023/12/12 03:45:54;;;;;;;2.13;0.80;;;;;;;17.83;57.15;96008.91;10405664;28;20535;-31
2023/12/12 03:50:55;;;;;;;2.63;0.95;;;;;;;17.66;56.85;95982.06;10409476;28;20315;-31
2023/12/12 03:55:55;;;;;;;3.10;0.83;;;;;;;17.84;57.15;96004.69;10405848;28;20033;-30
2023/12/12 04:00:56;;;;;;;1.48;0.60;;;;;;;17.85;56.22;95996.22;10400855;28;20287;-31
2023/12/12 04:05:56;;;;;;;1.85;0.80;;;;;;;17.86;56.15;95997.91;10410503;28;20041;-33
2023/12/12 04:10:57;;;;;;;3.63;0.73;;;;;;;17.86;56.75;96000.44;10397165;28;20112;-30
2023/12/12 04:15:57;;;;;;;2.25;0.70;;;;;;;17.87;56.09;95995.38;10395131;28;20026;-32
2023/12/12 04:20:57;;;;;;;1.57;0.80;;;;;;;17.85;56.39;95997.09;10402540;28;20026;-32
2023/12/12 04:25:58;;;;;;;3.17;0.70;;;;;;;17.86;56.10;95988.63;10403833;28;20659;-31
2023/12/12 04:30:58;;;;;;;1.77;0.90;;;;;;;17.84;56.96;95997.09;10396293;28;20063;-31
2023/12/12 04:35:59;;;;;;;1.77;1.00;;;;;;;17.87;56.70;95994.50;10400625;28;20541;-33
2023/12/12 04:41:02;;;;;;;2.78;1.23;;;;;;;17.88;57.21;96001.25;10392008;28;20029;-32
2023/12/12 04:46:02;;;;;;;2.67;0.70;;;;;;;17.91;56.17;96001.25;10385338;28;20048;-31
2023/12/12 04:51:03;;;;;;;3.70;1.40;;;;;;;17.93;56.16;95994.47;10392652;28;20060;-32
2023/12/12 04:56:05;;;;;;;0.80;0.65;;;;;;;17.91;55.68;95986.06;10394201;28;20103;-30
2023/12/12 05:01:06;;;;;;;2.00;0.90;;;;;;;17.93;55.90;95980.09;10401347;28;20491;-30
2023/12/12 05:06:10;;;;;;;1.23;0.85;;;;;;;17.93;55.59;95966.63;10404196;28;20037;-30
2023/12/12 05:11:13;;;;;;;3.35;0.90;;;;;;;17.92;55.68;95977.59;10392200;28;20045;-30
2023/12/12 05:16:13;;;;;;;2.67;0.68;;;;;;;17.92;56.51;95975.06;10396810;28;20060;-30
2023/12/12 05:21:14;;;;;;;1.58;1.20;;;;;;;17.95;55.50;95978.41;10407050;28;20063;-30
2023/12/12 05:26:15;;;;;;;2.40;0.60;;;;;;;17.97;55.60;95963.19;10399583;28;20484;-30
2023/12/12 05:31:16;;;;;;;2.15;0.70;;;;;;;17.99;55.48;95956.44;10398164;28;20044;-30
2023/12/12 05:36:16;;;;;;;2.90;0.80;;;;;;;17.96;56.03;95953.91;10397334;28;20495;-30
2023/12/12 05:41:16;;;;;;;2.27;0.60;;;;;;;17.94;56.13;95925.25;10407748;28;20063;-30
2023/12/12 05:46:17;;;;;;;7.33;0.90;;;;;;;17.86;57.18;95921.94;10408390;28;20049;-31
2023/12/12 05:51:17;;;;;;;6.55;0.80;;;;;;;17.92;55.80;95921.88;10404615;28;20367;-30
2023/12/12 05:56:18;;;;;;;4.83;1.00;;;;;;;17.92;56.80;95906.69;10408008;28;20052;-30
2023/12/12 06:01:18;;;;;;;9.68;1.35;;;;;;;17.95;56.14;95906.66;10404380;28;20037;-30
2023/12/12 06:06:20;;;;;;;3.67;1.20;;;;;;;17.96;55.32;95898.19;10405979;28;20496;-32
2023/12/12 06:11:23;;;;;;;4.45;1.00;;;;;;;17.96;56.97;95898.19;10401877;28;20782;-31
2023/12/12 06:16:23;;;;;;;3.67;1.30;;;;;;;17.96;56.03;95908.31;10405085;28;20033;-31
2023/12/12 06:21:23;;;;;;;9.27;1.27;;;;;;;17.93;55.83;95926.09;10404612;28;20045;-30
2023/12/12 06:26:26;;;;;;;4.43;0.93;;;;;;;17.96;55.65;95918.44;10406896;28;20029;-30
2023/12/12 06:31:26;;;;;;;5.72;1.30;;;;;;;17.68;54.90;95917.06;10404074;28;20042;-30
2023/12/12 06:36:27;;;;;;;5.63;1.65;;;;;;;17.82;54.92;95905.13;10405576;28;20037;-31
2023/12/12 06:41:27;;;;;;;5.13;1.20;;;;;;;17.82;54.67;95900.88;10404012;28;20418;-31
2023/12/12 06:46:28;;;;;;;8.47;1.83;;;;;;;17.88;54.93;95905.88;10404007;28;20311;-30
2023/12/12 06:51:29;;;;;;;7.65;1.30;;;;;;;17.91;54.73;95902.50;10404866;28;20076;-32
2023/12/12 06:56:30;;;;;;;4.33;1.23;;;;;;;17.90;54.86;95910.94;10403891;28;20044;-30
2023/12/12 07:01:31;;;;;;;3.25;0.85;;;;;;;17.87;55.10;95896.63;10403644;28;20288;-30
2023/12/12 07:06:31;;;;;;;7.30;1.00;;;;;;;17.88;54.79;95912.63;10404545;28;20038;-30
2023/12/12 07:11:32;;;;;;;3.43;0.97;;;;;;;17.88;54.73;95915.16;10401299;28;20033;-30
2023/12/12 07:16:32;;;;;;;5.00;0.73;;;;;;;17.89;54.86;95909.25;10403519;28;20291;-31
2023/12/12 07:21:41;;;;;;;3.47;0.80;;;;;;;17.90;54.63;95918.53;10411715;28;20280;-30
2023/12/12 07:26:45;;;;;;;1.40;1.10;;;;;;;17.88;54.41;95912.63;10412543;28;20044;-31
2023/12/12 07:31:46;;;;;;;0.85;0.50;;;;;;;17.87;54.68;95903.38;10410136;28;20146;-30
2023/12/12 07:36:49;;;;;;;2.00;0.80;;;;;;;17.86;54.53;95894.09;10412427;28;20112;-31
2023/12/12 07:41:50;;;;;;;3.65;1.00;;;;;;;17.86;54.42;95876.38;10404982;28;20033;-31
2023/12/12 07:46:50;;;;;;;3.23;0.87;;;;;;;17.85;54.49;95890.75;10410536;28;20033;-31
2023/12/12 07:51:51;;;;;;;1.27;0.70;;;;;;;17.81;54.49;95888.22;10410983;28;20045;-31
2023/12/12 07:56:51;;;;;;;4.30;1.23;;;;;;;17.86;54.40;95881.44;10412176;28;20038;-31
2023/12/12 08:01:51;;;;;;;4.23;0.80;;;;;;;17.88;54.37;95877.19;10408131;28;20029;-30
2023/12/12 08:06:52;;;;;;;1.47;0.70;;;;;;;17.86;54.52;95877.22;10409825;28;20037;-30
2023/12/12 08:11:52;;;;;;;2.47;0.87;;;;;;;17.87;54.41;95878.03;10406745;28;20515;-30
2023/12/12 08:16:53;;;;;;;1.63;0.70;;;;;;;17.86;54.73;95868.78;10408017;28;20580;-30
2023/12/12 08:21:53;;;;;;;2.03;0.88;;;;;;;17.85;54.33;95874.69;10409576;28;20025;-30
2023/12/12 08:26:54;;;;;;;1.00;0.57;;;;;;;17.85;53.96;95864.56;10410734;28;20099;-31
2023/12/12 08:31:54;;;;;;;1.77;0.70;;;;;;;17.87;54.02;95850.19;10407809;28;20033;-30
2023/12/12 08:36:54;;;;;;;2.57;0.50;;;;;;;17.87;53.80;95845.13;10404899;28;20036;-31
2023/12/12 08:41:55;;;;;;;9.00;0.95;;;;;;;17.87;53.98;95832.47;10407398;28;20083;-30
2023/12/12 08:46:57;;;;;;;2.43;0.53;;;;;;;17.85;54.13;95851.91;10408002;28;20029;-31
2023/12/12 08:51:58;;;;;;;0.80;0.55;;;;;;;17.84;53.98;95873.84;10405572;28;20334;-31
2023/12/12 08:56:59;;;;;;;0.85;0.47;;;;;;;17.86;53.76;95868.78;10410015;28;20433;-31
2023/12/12 09:02:01;;;;;;;2.05;0.57;;;;;;;17.85;53.94;95880.63;10405381;28;20041;-31
2023/12/12 09:07:01;;;;;;;2.75;1.05;;;;;;;17.86;53.74;95856.13;10405741;28;20037;-31
2023/12/12 09:12:01;;;;;;;1.47;0.97;;;;;;;17.77;54.53;95852.00;10403457;28;20052;-30
2023/12/12 09:17:02;;;;;;;0.68;0.60;;;;;;;17.85;54.46;95865.41;10404616;28;20037;-32
2023/12/12 09:22:02;;;;;;;0.75;0.40;;;;;;;17.86;53.95;95844.31;10406940;28;20037;-31
2023/12/12 09:27:03;;;;;;;1.42;0.40;;;;;;;17.78;54.21;95837.63;10408548;28;20029;-31
2023/12/12 09:32:04;;;;;;;1.98;0.52;;;;;;;17.85;53.93;95840.09;10404101;28;20029;-30
2023/12/12 09:37:04;;;;;;;1.70;0.38;;;;;;;17.85;53.84;95826.59;10404560;28;20502;-30
2023/12/12 09:42:11;;;;;;;2.30;0.67;;;;;;;17.86;53.69;95838.38;10406996;28;20034;-31
2023/12/12 09:47:13;;;;;;;1.48;0.77;;;;;;;17.87;53.88;95838.38;10406053;28;20052;-30
2023/12/12 09:52:16;;;;;;;0.63;0.38;;;;;;;17.89;54.17;95825.69;10405847;28;20049;-30
2023/12/12 09:57:18;;;;;;;0.70;0.50;;;;;;;17.88;54.24;95824.00;10403093;28;20045;-30
2023/12/12 10:02:33;;;;;;;0.55;0.40;;;;;;;17.85;53.83;95808.88;10400072;28;20399;-30
2023/12/12 10:07:34;;;;;;;0.90;0.50;;;;;;;17.86;54.23;95805.47;10405618;28;20556;-31
2023/12/12 10:12:35;;;;;;;1.33;0.40;;;;;;;17.87;53.85;95794.50;10400163;28;20045;-31
2023/12/12 10:17:38;;;;;;;0.65;0.38;;;;;;;17.87;53.77;95776.75;10402346;28;20037;-30
2023/12/12 10:22:38;;;;;;;1.02;0.82;;;;;;;17.87;53.92;95781.81;10396697;28;20415;-31
2023/12/12 10:27:42;;;;;;;0.73;0.40;;;;;;;17.87;53.75;95751.44;10406749;28;20037;-30
2023/12/12 10:32:43;;;;;;;0.68;0.40;;;;;;;17.87;53.87;95748.91;10401787;28;20044;-31
2023/12/12 10:37:43;;;;;;;0.73;0.40;;;;;;;17.88;53.91;95748.06;10402840;28;20033;-31
2023/12/12 10:42:44;;;;;;;0.85;0.50;;;;;;;17.85;53.95;95732.91;10390109;28;20575;-30
2023/12/12 10:47:49;;;;;;;2.00;0.70;;;;;;;17.85;53.94;95722.78;10398917;28;20030;-30
2023/12/12 10:52:51;;;;;;;0.88;0.60;;;;;;;17.85;53.72;95713.50;10396640;28;20037;-30
2023/12/12 10:57:55;;;;;;;1.15;0.50;;;;;;;17.85;53.95;95722.78;10399358;28;20404;-31
2023/12/12 11:02:56;;;;;;;0.65;0.32;;;;;;;17.85;53.71;95712.66;10394915;28;20404;-31
2023/12/12 11:07:58;;;;;;;1.70;0.45;;;;;;;17.85;54.01;95707.59;10404930;28;20143;-30
2023/12/12 11:13:01;;;;;;;1.05;0.57;;;;;;;17.84;53.80;95676.34;10402720;28;20032;-30
2023/12/12 11:18:08;;;;;;;2.88;0.47;;;;;;;17.84;53.94;95662.88;10401212;28;20029;-33
2023/12/12 11:23:09;;;;;;;0.60;0.32;;;;;;;17.87;54.25;95665.38;10397083;28;20048;-30
2023/12/12 11:28:09;;;;;;;0.80;0.50;;;;;;;17.87;54.06;95650.16;10398541;28;20263;-31
2023/12/12 11:33:10;;;;;;;0.90;0.50;;;;;;;17.86;53.84;95669.59;10395632;28;20050;-30
2023/12/12 11:38:31;;;;;;;1.40;0.50;;;;;;;17.89;54.07;95658.56;10400351;28;20030;-31
2023/12/12 11:43:32;;;;;;;0.50;0.38;;;;;;;17.88;53.89;95651.84;10399971;28;20072;-30
2023/12/12 11:48:32;;;;;;;0.73;0.50;;;;;;;17.86;54.61;95644.28;10399861;28;20068;-32
2023/12/12 11:53:40;;;;;;;2.67;0.70;;;;;;;17.89;54.44;95653.50;10384451;28;20291;-31
2023/12/12 11:58:40;;;;;;;0.50;0.30;;;;;;;17.88;54.90;95637.50;10388370;28;20279;-31
2023/12/12 12:03:41;;;;;;;0.67;0.40;;;;;;;17.91;54.51;95641.69;10385779;28;20533;-31
2023/12/12 12:08:41;;;;;;;0.50;0.37;;;;;;;17.91;54.75;95606.25;10388580;28;20304;-31
2023/12/12 12:13:42;;;;;;;1.60;0.50;;;;;;;17.96;54.57;95594.31;10399254;28;20067;-30
2023/12/12 12:18:43;;;;;;;0.82;0.52;;;;;;;17.95;54.67;95582.53;10387572;28;20583;-30
2023/12/12 12:23:43;;;;;;;0.80;0.50;;;;;;;17.92;55.00;95583.41;10397480;28;20034;-33
2023/12/12 12:28:43;;;;;;;1.77;0.30;;;;;;;17.96;54.94;95569.00;10391167;28;20054;-31
2023/12/12 12:33:44;;;;;;;0.93;0.50;;;;;;;17.96;54.56;95579.13;10383801;28;20061;-31
2023/12/12 12:38:47;;;;;;;1.40;0.60;;;;;;;17.96;54.66;95562.25;10389069;28;20295;-30
2023/12/12 12:43:54;;;;;;;0.90;0.52;;;;;;;18.00;54.33;95565.56;10390301;28;20036;-30
2023/12/12 12:48:55;;;;;;;2.70;0.70;;;;;;;17.90;54.45;95528.63;10388744;28;20041;-30
2023/12/12 12:53:56;;;;;;;37.95;16.40;;;;;;;17.98;57.71;95554.66;10384958;28;20480;-30
2023/12/12 12:58:56;;;;;;;38.57;19.47;;;;;;;17.92;56.11;95539.53;10389132;28;20041;-30
2023/12/12 13:03:57;;;;;;;49.67;21.10;;;;;;;17.89;56.48;95548.03;10387756;28;20048;-31
2023/12/12 13:08:57;;;;;;;43.58;20.88;;;;;;;17.93;56.40;95508.28;10388881;28;20034;-30
2023/12/12 13:13:58;;;;;;;51.35;23.23;;;;;;;17.96;55.98;95523.44;10391570;28;20080;-31
2023/12/12 13:18:58;;;;;;;53.53;26.37;;;;;;;17.99;55.55;95523.41;10386152;28;20033;-30
2023/12/12 13:23:59;;;;;;;60.25;26.65;;;;;;;17.98;55.33;95516.66;10366852;28;20049;-32
2023/12/12 13:28:59;;;;;;;61.00;29.33;;;;;;;17.93;55.04;95505.75;10392900;28;20037;-31
2023/12/12 13:33:59;;;;;;;62.73;31.00;;;;;;;18.02;55.11;95523.31;10382249;28;20046;-31
2023/12/12 13:38:59;;;;;;;61.90;28.57;;;;;;;17.95;55.16;95519.22;10392026;28;20046;-31
2023/12/12 13:44:00;;;;;;;74.27;36.70;;;;;;;17.96;55.79;95513.28;10387863;28;20499;-30
2023/12/12 13:49:00;;;;;;;70.63;35.23;;;;;;;17.95;56.03;95511.63;10382712;28;20591;-30
2023/12/12 13:54:01;;;;;;;69.27;34.90;;;;;;;18.05;56.12;95518.19;10386567;28;20041;-30
2023/12/12 13:59:01;;;;;;;78.53;35.72;;;;;;;18.05;56.35;95511.44;10385395;28;20509;-31
2023/12/12 14:04:02;;;;;;;74.03;35.47;;;;;;;18.03;55.95;95509.81;10383660;28;20133;-30
2023/12/12 14:09:03;;;;;;;65.07;34.00;;;;;;;18.04;56.29;95481.09;10378415;28;20069;-30
2023/12/12 14:14:04;;;;;;;61.22;31.63;;;;;;;18.03;56.78;95492.06;10383810;28;20530;-31
2023/12/12 14:19:05;;;;;;;60.57;31.17;;;;;;;18.04;56.54;95501.34;10388809;28;20037;-31
2023/12/12 14:24:05;;;;;;;57.97;31.40;;;;;;;18.05;56.20;95488.66;10378040;28;20115;-31
2023/12/12 14:29:06;;;;;;;59.25;29.80;;;;;;;18.05;56.35;95467.56;10386097;28;20037;-31
2023/12/12 14:34:06;;;;;;;56.73;29.40;;;;;;;18.02;55.95;95477.75;10385073;28;20040;-30
2023/12/12 14:39:06;;;;;;;56.78;29.23;;;;;;;18.03;55.77;95464.22;10392707;28;20275;-30
2023/12/12 14:44:07;;;;;;;52.83;27.97;;;;;;;18.01;57.30;95461.69;10391234;28;20111;-31
2023/12/12 14:49:08;;;;;;;43.75;24.00;;;;;;;17.95;56.12;95441.59;10386617;28;20039;-30
2023/12/12 14:54:09;;;;;;;46.05;25.63;;;;;;;17.99;56.56;95442.38;10389303;28;20796;-30
2023/12/12 14:59:09;;;;;;;49.42;26.55;;;;;;;18.02;57.41;95442.28;10383767;28;20033;-30
2023/12/12 15:04:10;;;;;;;47.85;26.52;;;;;;;18.02;57.32;95462.56;10387094;28;20693;-31
2023/12/12 15:09:13;;;;;;;49.20;25.93;;;;;;;18.00;57.31;95454.97;10381640;28;20060;-30
2023/12/12 15:14:16;;;;;;;45.55;23.88;;;;;;;17.98;57.03;95450.81;10386149;28;20427;-31
2023/12/12 15:19:16;;;;;;;45.28;25.50;;;;;;;18.00;57.34;95406.03;10393338;28;20488;-30
2023/12/12 15:24:17;;;;;;;44.53;24.55;;;;;;;17.98;57.22;95425.50;10381596;28;20044;-31
2023/12/12 15:29:17;;;;;;;42.22;25.08;;;;;;;17.99;57.26;95432.22;10394792;28;20037;-30
2023/12/12 15:34:18;;;;;;;39.00;21.60;;;;;;;18.00;56.62;95433.91;10425454;28;20037;-30
2023/12/12 15:39:18;;;;;;;41.50;22.23;;;;;;;18.01;56.57;95431.31;10406165;28;20021;-30
2023/12/12 15:44:19;;;;;;;36.33;20.77;;;;;;;17.99;55.88;95432.22;10429579;28;20052;-31
2023/12/12 15:49:19;;;;;;;27.77;15.65;;;;;;;17.99;57.27;95414.50;10414693;28;20079;-30
2023/12/12 15:54:19;;;;;;;25.70;13.50;;;;;;;17.98;57.76;95425.50;10420615;28;20047;-31
2023/12/12 15:59:22;;;;;;;23.60;14.10;;;;;;;17.94;57.80;95436.53;10399165;28;20033;-31
2023/12/12 16:04:23;;;;;;;29.70;14.52;;;;;;;17.94;57.22;95423.88;10399931;28;20060;-31
2023/12/12 16:09:24;;;;;;;23.73;13.82;;;;;;;17.97;58.00;95418.75;10399337;28;20572;-31
2023/12/12 16:14:24;;;;;;;28.53;12.87;;;;;;;17.96;57.60;95442.41;10408311;28;20049;-30
2023/12/12 16:19:26;;;;;;;24.17;14.03;;;;;;;17.97;57.91;95433.94;10417739;28;20030;-32
2023/12/12 16:24:26;;;;;;;26.65;13.85;;;;;;;17.95;57.50;95435.66;10414105;28;20610;-31
2023/12/12 16:29:27;;;;;;;22.47;12.70;;;;;;;17.93;57.79;95440.75;10412949;28;20044;-31
2023/12/12 16:34:28;;;;;;;22.92;12.35;;;;;;;17.97;57.15;95433.94;10405195;28;20055;-31
2023/12/12 16:39:28;;;;;;;23.33;12.37;;;;;;;17.92;57.83;95426.44;10401140;28;20029;-31
2023/12/12 16:44:28;;;;;;;19.70;12.27;;;;;;;17.97;57.69;95444.06;10425705;28;20095;-32
2023/12/12 16:49:29;;;;;;;22.20;12.90;;;;;;;17.96;56.98;95443.25;10413154;28;20052;-32
2023/12/12 16:54:30;;;;;;;22.90;12.10;;;;;;;17.95;57.42;95446.66;10426677;28;20033;-31
2023/12/12 16:59:31;;;;;;;22.13;12.95;;;;;;;17.95;57.23;95436.53;10396429;28;20275;-31
2023/12/12 17:04:32;;;;;;;21.80;13.40;;;;;;;17.93;57.70;95417.16;10409760;28;20036;-32
2023/12/12 17:09:33;;;;;;;20.08;11.43;;;;;;;17.93;56.52;95433.16;10412148;28;20072;-31
2023/12/12 17:14:33;;;;;;;20.92;12.18;;;;;;;17.94;57.47;95436.53;10400008;28;20469;-31
2023/12/12 17:19:33;;;;;;;20.50;11.90;;;;;;;17.92;57.89;95453.47;10405459;28;20400;-31
2023/12/12 17:24:37;;;;;;;26.00;13.43;;;;;;;17.91;58.59;95439.13;10387825;28;20403;-31
2023/12/12 17:29:37;;;;;;;20.17;12.40;;;;;;;17.97;58.41;95439.00;10390125;28;20044;-31
2023/12/12 17:34:39;;;;;;;28.37;13.20;;;;;;;17.94;58.64;95394.34;10405073;28;20039;-30
2023/12/12 17:39:41;;;;;;;20.50;12.60;;;;;;;18.03;57.84;95409.34;10408074;28;20487;-28
2023/12/12 17:44:42;;;;;;;21.50;12.60;;;;;;;18.06;58.08;95403.38;10402184;28;20033;-29
2023/12/12 17:49:42;;;;;;;20.10;12.25;;;;;;;18.15;57.65;95444.56;10420507;28;20098;-28
2023/12/12 17:54:43;;;;;;;21.40;12.85;;;;;;;18.07;58.48;95433.75;10394760;28;20091;-30
2023/12/12 17:59:44;;;;;;;20.65;12.27;;;;;;;18.21;57.68;95438.53;10396375;28;20144;-28
2023/12/12 18:04:44;;;;;;;19.77;11.83;;;;;;;18.14;57.15;95432.78;10409709;28;20034;-28
2023/12/12 18:09:44;;;;;;;22.33;12.13;;;;;;;18.11;57.35;95432.00;10402349;28;20046;-28
2023/12/12 18:14:45;;;;;;;33.50;17.07;;;;;;;18.16;57.85;95430.22;10399716;28;20497;-28
2023/12/12 18:19:47;;;;;;;30.90;16.43;;;;;;;18.10;57.57;95400.78;10402851;28;20452;-29
2023/12/12 18:24:47;;;;;;;30.20;16.23;;;;;;;18.13;57.90;95397.34;10405169;28;20355;-28
2023/12/12 18:29:48;;;;;;;39.60;20.27;;;;;;;18.07;59.25;95389.88;10403777;28;20117;-30
2023/12/12 18:34:49;;;;;;;38.23;18.27;;;;;;;18.03;58.64;95399.22;10406519;28;20128;-30
2023/12/12 18:39:50;;;;;;;38.08;20.17;;;;;;;18.02;59.38;95440.63;10410353;28;20036;-29
2023/12/12 18:44:50;;;;;;;37.30;19.27;;;;;;;18.01;58.76;95412.78;10411065;28;20036;-29
2023/12/12 18:49:52;;;;;;;33.73;18.43;;;;;;;18.01;58.68;95417.84;10410368;28;20033;-29
2023/12/12 18:54:52;;;;;;;33.53;18.75;;;;;;;17.99;58.52;95422.91;10392215;28;20044;-29
2023/12/12 18:59:53;;;;;;;33.50;17.73;;;;;;;17.97;58.56;95408.63;10396917;28;20707;-29
2023/12/12 19:04:53;;;;;;;29.75;16.73;;;;;;;17.97;58.46;95399.34;10405359;28;20038;-29
2023/12/12 19:09:55;;;;;;;31.45;16.55;;;;;;;17.93;58.59;95395.19;10413681;28;20044;-30
2023/12/12 19:14:55;;;;;;;28.88;16.38;;;;;;;17.94;58.54;95403.63;10404296;28;20037;-29
2023/12/12 19:19:55;;;;;;;26.57;16.77;;;;;;;17.88;58.17;95381.78;10378731;28;20033;-29
2023/12/12 19:24:56;;;;;;;28.57;15.87;;;;;;;17.96;58.21;95401.88;10372486;28;20045;-28
2023/12/12 19:29:56;;;;;;;27.37;16.43;;;;;;;17.96;57.79;95376.56;10354547;28;20033;-29
2023/12/12 19:34:56;;;;;;;29.40;15.73;;;;;;;17.95;57.80;95379.97;10389737;28;20434;-29
2023/12/12 19:39:57;;;;;;;28.93;15.57;;;;;;;17.98;57.61;95385.81;10402634;28;20314;-28
2023/12/12 19:44:57;;;;;;;26.50;15.27;;;;;;;18.05;58.03;95389.03;10389884;28;20288;-29
2023/12/12 19:49:57;;;;;;;24.47;14.03;;;;;;;18.01;58.80;95370.53;10398655;28;20040;-29
2023/12/12 19:54:58;;;;;;;22.10;13.33;;;;;;;18.01;58.27;95369.72;10393864;28;20037;-29
2023/12/12 19:59:58;;;;;;;22.13;13.17;;;;;;;17.99;58.39;95367.22;10393909;28;20026;-29
2023/12/12 20:04:58;;;;;;;23.77;13.77;;;;;;;17.99;57.65;95366.41;10401492;28;20034;-29
2023/12/12 20:10:01;;;;;;;22.97;12.93;;;;;;;18.01;57.95;95384.91;10401214;28;20044;-28
2023/12/12 20:15:03;;;;;;;22.42;13.43;;;;;;;18.00;58.02;95388.31;10396726;28;20037;-30
2023/12/12 20:20:03;;;;;;;22.02;13.25;;;;;;;18.01;57.87;95389.97;10397320;28;20048;-29
2023/12/12 20:25:06;;;;;;;19.50;12.18;;;;;;;18.02;57.81;95386.59;10398926;28;20501;-29
2023/12/12 20:30:07;;;;;;;20.75;12.30;;;;;;;18.02;57.78;95386.59;10397562;28;20029;-30
2023/12/12 20:35:07;;;;;;;20.65;12.38;;;;;;;18.00;58.12;95388.31;10396099;28;20033;-30
2023/12/12 20:40:10;;;;;;;16.63;10.77;;;;;;;18.01;57.66;95374.78;10386082;28;20032;-29
2023/12/12 20:45:10;;;;;;;19.55;11.02;;;;;;;18.02;57.26;95362.13;10401529;28;20041;-30
2023/12/12 20:50:11;;;;;;;21.05;11.50;;;;;;;18.03;57.34;95357.88;10394065;28;20411;-30
2023/12/12 20:55:11;;;;;;;18.92;11.40;;;;;;;18.03;57.91;95345.19;10385723;28;20042;-31
2023/12/12 21:00:12;;;;;;;19.27;11.43;;;;;;;18.01;57.87;95349.47;10394099;28;20677;-30
2023/12/12 21:05:13;;;;;;;14.23;10.70;;;;;;;18.02;58.03;95376.47;10396248;28;20488;-29
2023/12/12 21:10:14;;;;;;;22.17;11.48;;;;;;;18.01;57.86;95378.13;10399158;28;20049;-30
2023/12/12 21:15:14;;;;;;;15.15;10.95;;;;;;;17.99;57.69;95391.72;10398055;28;20073;-30
2023/12/12 21:20:15;;;;;;;18.42;10.32;;;;;;;18.02;57.72;95387.44;10398240;28;20110;-30
2023/12/12 21:25:16;;;;;;;20.23;11.52;;;;;;;18.01;57.69;95389.97;10387406;28;20045;-30
2023/12/12 21:30:17;;;;;;;16.67;9.85;;;;;;;17.99;57.95;95452.50;10391909;28;20075;-29
2023/12/12 21:35:17;;;;;;;17.17;9.27;;;;;;;18.03;58.35;95465.06;10395243;28;20052;-29
2023/12/12 21:40:18;;;;;;;13.25;8.93;;;;;;;18.06;58.37;95469.22;10394578;28;20025;-30
2023/12/12 21:45:19;;;;;;;15.85;8.95;;;;;;;18.05;58.31;95465.88;10389718;28;20030;-29
2023/12/12 21:50:19;;;;;;;12.77;9.27;;;;;;;17.99;58.45;95463.44;10389672;28;20041;-29
2023/12/12 21:55:19;;;;;;;15.17;10.00;;;;;;;18.00;58.26;95456.69;10393865;28;20549;-29
2023/12/12 22:00:23;;;;;;;11.70;8.70;;;;;;;18.00;58.03;95439.78;10391932;28;20056;-30
2023/12/12 22:05:23;;;;;;;14.55;9.00;;;;;;;18.01;57.57;95455.81;10382192;28;20124;-30
2023/12/12 22:10:24;;;;;;;16.00;8.87;;;;;;;18.04;57.50;95460.81;10388505;28;20048;-29
2023/12/12 22:15:25;;;;;;;14.60;8.65;;;;;;;17.95;57.12;95451.72;10395655;28;20053;-30
2023/12/12 22:20:29;;;;;;;12.80;7.63;;;;;;;17.97;58.91;95444.91;10392788;28;20496;-30
2023/12/12 22:25:30;;;;;;;14.82;8.00;;;;;;;17.95;58.33;95441.59;10394229;28;20522;-30
2023/12/12 22:30:30;;;;;;;11.95;7.90;;;;;;;17.92;57.83;95433.22;10387990;28;20042;-29
2023/12/12 22:35:30;;;;;;;13.23;7.60;;;;;;;17.95;58.44;95440.72;10405488;28;20103;-30
2023/12/12 22:40:31;;;;;;;14.07;7.93;;;;;;;17.94;58.86;95439.91;10391204;28;20038;-29
2023/12/12 22:45:31;;;;;;;13.40;7.30;;;;;;;17.94;58.90;95421.34;10395274;28;20300;-30
2023/12/12 22:50:31;;;;;;;17.37;7.77;;;;;;;17.93;59.38;95424.75;10400900;28;20050;-30
2023/12/12 22:55:32;;;;;;;13.77;7.50;;;;;;;17.95;58.88;95433.13;10399376;28;20049;-29
2023/12/12 23:00:32;;;;;;;12.23;8.00;;;;;;;17.93;59.43;95433.16;10404253;28;20065;-32
2023/12/12 23:05:33;;;;;;;11.05;6.68;;;;;;;17.94;58.81;95422.19;10406892;28;20549;-29